sensor_id;sensor_type;location;lat;lon;timestamp;pressure;altitude;pressure_sealevel;temperature;humidity
76022;BME280;64718;52.124;6.226;2023-05-10T00:01:05;100811.75;;;11.91;100.00
76022;BME280;64718;52.124;6.226;2023-05-10T00:03:32;100808.28;;;11.91;100.00
76022;BME280;64718;52.124;6.226;2023-05-10T00:05:59;100808.44;;;11.88;100.00
76022;BME280;64718;52.124;6.226;2023-05-10T00:08:25;100800.47;;;11.91;100.00
76022;BME280;64718;52.124;6.226;2023-05-10T00:10:52;100803.16;;;11.89;100.00
76022;BME280;64718;52.124;6.226;2023-05-10T00:13:21;100798.78;;;11.90;100.00
76022;BME280;64718;52.124;6.226;2023-05-10T00:15:48;100793.72;;;11.87;100.00
76022;BME280;64718;52.124;6.226;2023-05-10T00:18:15;100799.94;;;11.84;100.00
76022;BME280;64718;52.124;6.226;2023-05-10T00:20:42;100801.69;;;11.84;100.00
76022;BME280;64718;52.124;6.226;2023-05-10T00:23:11;100797.09;;;11.89;100.00
76022;BME280;64718;52.124;6.226;2023-05-10T00:25:37;100786.91;;;11.84;100.00
76022;BME280;64718;52.124;6.226;2023-05-10T00:28:04;100789.56;;;11.83;100.00
76022;BME280;64718;52.124;6.226;2023-05-10T00:30:32;100787.88;;;11.82;100.00
76022;BME280;64718;52.124;6.226;2023-05-10T00:32:58;100784.50;;;11.80;100.00
76022;BME280;64718;52.124;6.226;2023-05-10T00:35:25;100782.75;;;11.80;100.00
76022;BME280;64718;52.124;6.226;2023-05-10T00:37:52;100785.22;;;11.83;100.00
76022;BME280;64718;52.124;6.226;2023-05-10T00:40:18;100783.38;;;11.85;100.00
76022;BME280;64718;52.124;6.226;2023-05-10T00:42:45;100785.91;;;11.87;100.00
76022;BME280;64718;52.124;6.226;2023-05-10T00:45:12;100792.56;;;11.92;100.00
76022;BME280;64718;52.124;6.226;2023-05-10T00:47:40;100778.09;;;11.87;100.00
76022;BME280;64718;52.124;6.226;2023-05-10T00:50:08;100788.34;;;11.90;100.00
76022;BME280;64718;52.124;6.226;2023-05-10T00:52:35;100784.22;;;11.86;100.00
76022;BME280;64718;52.124;6.226;2023-05-10T00:55:01;100788.50;;;11.87;100.00
76022;BME280;64718;52.124;6.226;2023-05-10T00:57:28;100779.00;;;11.86;100.00
76022;BME280;64718;52.124;6.226;2023-05-10T00:59:55;100779.06;;;11.84;100.00
76022;BME280;64718;52.124;6.226;2023-05-10T01:02:23;100786.75;;;11.87;100.00
76022;BME280;64718;52.124;6.226;2023-05-10T01:04:51;100784.13;;;11.87;100.00
76022;BME280;64718;52.124;6.226;2023-05-10T01:07:19;100784.00;;;11.90;100.00
76022;BME280;64718;52.124;6.226;2023-05-10T01:09:45;100782.38;;;11.88;100.00
76022;BME280;64718;52.124;6.226;2023-05-10T01:12:12;100782.31;;;11.89;100.00
76022;BME280;64718;52.124;6.226;2023-05-10T01:14:39;100781.38;;;11.90;100.00
76022;BME280;64718;52.124;6.226;2023-05-10T01:17:07;100776.16;;;11.90;100.00
76022;BME280;64718;52.124;6.226;2023-05-10T01:19:34;100785.59;;;11.93;100.00
76022;BME280;64718;52.124;6.226;2023-05-10T01:22:13;100779.47;;;11.94;100.00
76022;BME280;64718;52.124;6.226;2023-05-10T01:25:19;100782.91;;;11.94;100.00
76022;BME280;64718;52.124;6.226;2023-05-10T01:28:10;100784.47;;;11.98;100.00
76022;BME280;64718;52.124;6.226;2023-05-10T01:31:03;100782.69;;;11.99;100.00
76022;BME280;64718;52.124;6.226;2023-05-10T01:33:39;100783.53;;;11.99;100.00
76022;BME280;64718;52.124;6.226;2023-05-10T01:36:13;100781.78;;;12.00;100.00
76022;BME280;64718;52.124;6.226;2023-05-10T01:38:44;100783.47;;;12.01;100.00
76022;BME280;64718;52.124;6.226;2023-05-10T01:41:18;100784.38;;;12.00;100.00
76022;BME280;64718;52.124;6.226;2023-05-10T01:43:53;100785.16;;;12.02;100.00
76022;BME280;64718;52.124;6.226;2023-05-10T01:46:27;100785.91;;;12.04;100.00
76022;BME280;64718;52.124;6.226;2023-05-10T01:48:57;100785.91;;;12.04;100.00
76022;BME280;64718;52.124;6.226;2023-05-10T01:51:36;100781.78;;;12.00;100.00
76022;BME280;64718;52.124;6.226;2023-05-10T01:54:05;100776.63;;;11.98;100.00
76022;BME280;64718;52.124;6.226;2023-05-10T01:56:33;100786.91;;;12.01;100.00
76022;BME280;64718;52.124;6.226;2023-05-10T01:59:04;100785.16;;;12.02;100.00
76022;BME280;64718;52.124;6.226;2023-05-10T02:01:33;100790.28;;;12.03;100.00
76022;BME280;64718;52.124;6.226;2023-05-10T02:04:01;100783.06;;;12.09;100.00
76022;BME280;64718;52.124;6.226;2023-05-10T02:06:28;100793.28;;;12.13;100.00
76022;BME280;64718;52.124;6.226;2023-05-10T02:08:57;100786.31;;;12.14;100.00
76022;BME280;64718;52.124;6.226;2023-05-10T02:11:24;100791.38;;;12.17;100.00
76022;BME280;64718;52.124;6.226;2023-05-10T02:13:52;100796.44;;;12.20;100.00
76022;BME280;64718;52.124;6.226;2023-05-10T02:16:23;100797.44;;;12.17;100.00
76022;BME280;64718;52.124;6.226;2023-05-10T02:18:52;100792.22;;;12.17;100.00
76022;BME280;64718;52.124;6.226;2023-05-10T02:21:21;100800.81;;;12.19;100.00
76022;BME280;64718;52.124;6.226;2023-05-10T02:23:48;100802.44;;;12.22;100.00
76022;BME280;64718;52.124;6.226;2023-05-10T02:26:17;100802.28;;;12.25;100.00
76022;BME280;64718;52.124;6.226;2023-05-10T02:28:47;100799.75;;;12.23;100.00
76022;BME280;64718;52.124;6.226;2023-05-10T02:31:14;100800.66;;;12.22;100.00
76022;BME280;64718;52.124;6.226;2023-05-10T02:33:42;100803.19;;;12.24;100.00
76022;BME280;64718;52.124;6.226;2023-05-10T02:36:11;100808.25;;;12.27;100.00
76022;BME280;64718;52.124;6.226;2023-05-10T02:38:40;100804.97;;;12.23;100.00
76022;BME280;64718;52.124;6.226;2023-05-10T02:41:07;100809.19;;;12.26;100.00
76022;BME280;64718;52.124;6.226;2023-05-10T02:43:37;100804.72;;;12.28;100.00
76022;BME280;64718;52.124;6.226;2023-05-10T02:46:05;100804.72;;;12.28;100.00
76022;BME280;64718;52.124;6.226;2023-05-10T02:48:32;100803.72;;;12.30;100.00
76022;BME280;64718;52.124;6.226;2023-05-10T02:51:02;100801.97;;;12.31;100.00
76022;BME280;64718;52.124;6.226;2023-05-10T02:53:31;100801.97;;;12.31;100.00
76022;BME280;64718;52.124;6.226;2023-05-10T02:56:04;100801.13;;;12.30;100.00
76022;BME280;64718;52.124;6.226;2023-05-10T02:58:32;100804.72;;;12.28;100.00
76022;BME280;64718;52.124;6.226;2023-05-10T03:00:59;100804.72;;;12.28;100.00
76022;BME280;64718;52.124;6.226;2023-05-10T03:03:26;100799.44;;;12.29;100.00
76022;BME280;64718;52.124;6.226;2023-05-10T03:05:52;100804.56;;;12.31;100.00
76022;BME280;64718;52.124;6.226;2023-05-10T03:08:21;100799.44;;;12.29;100.00
76022;BME280;64718;52.124;6.226;2023-05-10T03:10:55;100805.56;;;12.28;100.00
76022;BME280;64718;52.124;6.226;2023-05-10T03:13:32;100804.72;;;12.28;100.00
76022;BME280;64718;52.124;6.226;2023-05-10T03:16:07;100804.66;;;12.29;100.00
76022;BME280;64718;52.124;6.226;2023-05-10T03:18:41;100804.56;;;12.31;100.00
76022;BME280;64718;52.124;6.226;2023-05-10T03:21:11;100803.81;;;12.29;100.00
76022;BME280;64718;52.124;6.226;2023-05-10T03:23:41;100805.34;;;12.33;100.00
76022;BME280;64718;52.124;6.226;2023-05-10T03:26:09;100805.41;;;12.31;100.00
76022;BME280;64718;52.124;6.226;2023-05-10T03:28:41;100809.72;;;12.32;100.00
76022;BME280;64718;52.124;6.226;2023-05-10T03:31:08;100819.22;;;12.33;100.00
76022;BME280;64718;52.124;6.226;2023-05-10T03:33:35;100818.38;;;12.33;100.00
76022;BME280;64718;52.124;6.226;2023-05-10T03:36:01;100815.63;;;12.36;100.00
76022;BME280;64718;52.124;6.226;2023-05-10T03:38:28;100808.63;;;12.37;100.00
76022;BME280;64718;52.124;6.226;2023-05-10T03:40:54;100814.09;;;12.32;100.00
76022;BME280;64718;52.124;6.226;2023-05-10T03:43:21;100818.31;;;12.34;100.00
76022;BME280;64718;52.124;6.226;2023-05-10T03:45:49;100829.50;;;12.37;100.00
76022;BME280;64718;52.124;6.226;2023-05-10T03:48:15;100827.06;;;12.33;100.00
76022;BME280;64718;52.124;6.226;2023-05-10T03:50:42;100827.13;;;12.32;100.00
76022;BME280;64718;52.124;6.226;2023-05-10T03:53:09;100820.91;;;12.34;100.00
76022;BME280;64718;52.124;6.226;2023-05-10T03:55:35;100824.38;;;12.35;100.00
76022;BME280;64718;52.124;6.226;2023-05-10T03:58:01;100829.75;;;12.32;100.00
76022;BME280;64718;52.124;6.226;2023-05-10T04:00:28;100838.41;;;12.32;100.00
76022;BME280;64718;52.124;6.226;2023-05-10T04:02:56;100832.97;;;12.37;100.00
76022;BME280;64718;52.124;6.226;2023-05-10T04:05:23;100832.97;;;12.37;100.00
76022;BME280;64718;52.124;6.226;2023-05-10T04:07:49;100845.84;;;12.40;100.00
76022;BME280;64718;52.124;6.226;2023-05-10T04:10:16;100831.88;;;12.41;100.00
76022;BME280;64718;52.124;6.226;2023-05-10T04:12:42;100835.66;;;12.35;100.00
76022;BME280;64718;52.124;6.226;2023-05-10T04:15:09;100838.25;;;12.35;100.00
76022;BME280;64718;52.124;6.226;2023-05-10T04:17:36;100842.53;;;12.37;100.00
76022;BME280;64718;52.124;6.226;2023-05-10T04:20:05;100843.53;;;12.34;100.00
76022;BME280;64718;52.124;6.226;2023-05-10T04:22:32;100838.31;;;12.34;100.00
76022;BME280;64718;52.124;6.226;2023-05-10T04:24:59;100840.78;;;12.37;100.00
76022;BME280;64718;52.124;6.226;2023-05-10T04:27:25;100843.47;;;12.35;100.00
76022;BME280;64718;52.124;6.226;2023-05-10T04:29:52;100843.47;;;12.35;100.00
76022;BME280;64718;52.124;6.226;2023-05-10T04:32:18;100845.84;;;12.40;100.00
76022;BME280;64718;52.124;6.226;2023-05-10T04:34:45;100848.59;;;12.37;100.00
76022;BME280;64718;52.124;6.226;2023-05-10T04:37:13;100856.13;;;12.43;100.00
76022;BME280;64718;52.124;6.226;2023-05-10T04:39:39;100848.00;;;12.49;100.00
76022;BME280;64718;52.124;6.226;2023-05-10T04:42:06;100846.16;;;12.51;100.00
76022;BME280;64718;52.124;6.226;2023-05-10T04:44:33;100845.22;;;12.52;100.00
76022;BME280;64718;52.124;6.226;2023-05-10T04:47:00;100852.28;;;12.50;100.00
76022;BME280;64718;52.124;6.226;2023-05-10T04:49:27;100854.81;;;12.52;100.00
76022;BME280;64718;52.124;6.226;2023-05-10T04:51:54;100856.03;;;12.45;100.00
76022;BME280;64718;52.124;6.226;2023-05-10T04:54:21;100870.00;;;12.44;100.00
76022;BME280;64718;52.124;6.226;2023-05-10T04:56:48;100865.03;;;12.39;100.00
76022;BME280;64718;52.124;6.226;2023-05-10T04:59:14;100878.84;;;12.41;100.00
76022;BME280;64718;52.124;6.226;2023-05-10T05:01:41;100856.13;;;12.43;100.00
76022;BME280;64718;52.124;6.226;2023-05-10T05:04:07;100862.94;;;12.46;100.00
76022;BME280;64718;52.124;6.226;2023-05-10T05:06:34;100870.94;;;12.43;100.00
76022;BME280;64718;52.124;6.226;2023-05-10T05:09:00;100871.94;;;12.40;100.00
76022;BME280;64718;52.124;6.226;2023-05-10T05:11:29;100872.00;;;12.39;100.00
76022;BME280;64718;52.124;6.226;2023-05-10T05:13:55;100879.75;;;12.40;100.00
76022;BME280;64718;52.124;6.226;2023-05-10T05:16:24;100879.00;;;12.38;100.00
76022;BME280;64718;52.124;6.226;2023-05-10T05:18:50;100880.91;;;12.34;100.00
76022;BME280;64718;52.124;6.226;2023-05-10T05:21:18;100880.06;;;12.34;100.00
76022;BME280;64718;52.124;6.226;2023-05-10T05:23:45;100882.75;;;12.32;100.00
76022;BME280;64718;52.124;6.226;2023-05-10T05:26:11;100883.81;;;12.28;100.00
76022;BME280;64718;52.124;6.226;2023-05-10T05:28:39;100880.91;;;12.34;100.00
76022;BME280;64718;52.124;6.226;2023-05-10T05:31:07;100889.41;;;12.38;100.00
76022;BME280;64718;52.124;6.226;2023-05-10T05:33:34;100885.97;;;12.38;100.00
76022;BME280;64718;52.124;6.226;2023-05-10T05:36:01;100894.63;;;12.38;100.00
76022;BME280;64718;52.124;6.226;2023-05-10T05:38:27;100894.88;;;12.33;100.00
76022;BME280;64718;52.124;6.226;2023-05-10T05:40:54;100895.41;;;12.40;100.00
76022;BME280;64718;52.124;6.226;2023-05-10T05:43:20;100885.75;;;12.42;100.00
76022;BME280;64718;52.124;6.226;2023-05-10T05:45:48;100894.94;;;12.49;100.00
76022;BME280;64718;52.124;6.226;2023-05-10T05:48:15;100895.50;;;12.56;100.00
76022;BME280;64718;52.124;6.226;2023-05-10T05:50:41;100896.94;;;12.61;100.00
76022;BME280;64718;52.124;6.226;2023-05-10T05:53:08;100899.31;;;12.66;100.00
76022;BME280;64718;52.124;6.226;2023-05-10T05:55:35;100905.22;;;12.70;100.00
76022;BME280;64718;52.124;6.226;2023-05-10T05:58:01;100901.94;;;12.66;100.00
76022;BME280;64718;52.124;6.226;2023-05-10T06:00:28;100898.97;;;12.74;100.00
76022;BME280;64718;52.124;6.226;2023-05-10T06:02:56;100905.31;;;12.68;100.00
76022;BME280;64718;52.124;6.226;2023-05-10T06:05:22;100909.53;;;12.71;100.00
76022;BME280;64718;52.124;6.226;2023-05-10T06:07:49;100909.31;;;12.75;100.00
76022;BME280;64718;52.124;6.226;2023-05-10T06:10:15;100908.25;;;12.79;100.00
76022;BME280;64718;52.124;6.226;2023-05-10T06:12:42;100893.44;;;12.80;100.00
76022;BME280;64718;52.124;6.226;2023-05-10T06:15:09;100898.50;;;12.83;100.00
76022;BME280;64718;52.124;6.226;2023-05-10T06:17:36;100894.28;;;12.80;100.00
76022;BME280;64718;52.124;6.226;2023-05-10T06:20:06;100900.31;;;12.98;100.00
76022;BME280;64718;52.124;6.226;2023-05-10T06:22:33;100912.50;;;13.32;100.00
76022;BME280;64718;52.124;6.226;2023-05-10T06:24:59;100907.31;;;13.48;100.00
76022;BME280;64718;52.124;6.226;2023-05-10T06:27:27;100916.06;;;13.31;100.00
76022;BME280;64718;52.124;6.226;2023-05-10T06:29:53;100919.19;;;13.20;100.00
76022;BME280;64718;52.124;6.226;2023-05-10T06:32:20;100910.91;;;13.29;100.00
76022;BME280;64718;52.124;6.226;2023-05-10T06:34:47;100913.41;;;13.14;100.00
76022;BME280;64718;52.124;6.226;2023-05-10T06:37:14;100918.63;;;13.14;100.00
76022;BME280;64718;52.124;6.226;2023-05-10T06:39:41;100927.97;;;13.02;100.00
76022;BME280;64718;52.124;6.226;2023-05-10T06:42:08;100923.22;;;12.93;100.00
76022;BME280;64718;52.124;6.226;2023-05-10T06:44:35;100929.75;;;12.84;100.00
76022;BME280;64718;52.124;6.226;2023-05-10T06:47:01;100930.59;;;12.85;100.00
76022;BME280;64718;52.124;6.226;2023-05-10T06:49:28;100930.50;;;12.86;100.00
76022;BME280;64718;52.124;6.226;2023-05-10T06:51:55;100937.41;;;12.87;100.00
76022;BME280;64718;52.124;6.226;2023-05-10T06:54:23;100937.34;;;12.89;100.00
76022;BME280;64718;52.124;6.226;2023-05-10T06:56:49;100936.78;;;12.99;100.00
76022;BME280;64718;52.124;6.226;2023-05-10T06:59:16;100937.31;;;13.06;100.00
76022;BME280;64718;52.124;6.226;2023-05-10T07:01:44;100940.00;;;13.05;100.00
76022;BME280;64718;52.124;6.226;2023-05-10T07:04:10;100936.25;;;13.10;100.00
76022;BME280;64718;52.124;6.226;2023-05-10T07:06:38;100937.41;;;13.22;100.00
76022;BME280;64718;52.124;6.226;2023-05-10T07:09:04;100938.63;;;13.15;100.00
76022;BME280;64718;52.124;6.226;2023-05-10T07:11:32;100938.09;;;13.08;100.00
76022;BME280;64718;52.124;6.226;2023-05-10T07:13:58;100945.91;;;13.08;100.00
76022;BME280;64718;52.124;6.226;2023-05-10T07:16:25;100949.06;;;13.15;100.00
76022;BME280;64718;52.124;6.226;2023-05-10T07:18:52;100956.38;;;13.08;100.00
76022;BME280;64718;52.124;6.226;2023-05-10T07:21:18;100961.13;;;13.00;100.00
76022;BME280;64718;52.124;6.226;2023-05-10T07:23:45;100959.75;;;12.93;100.00
76022;BME280;64718;52.124;6.226;2023-05-10T07:26:11;100962.69;;;12.87;100.00
76022;BME280;64718;52.124;6.226;2023-05-10T07:28:41;100965.22;;;12.88;100.00
76022;BME280;64718;52.124;6.226;2023-05-10T07:31:07;100967.22;;;12.83;100.00
76022;BME280;64718;52.124;6.226;2023-05-10T07:33:34;100976.03;;;12.81;100.00
76022;BME280;64718;52.124;6.226;2023-05-10T07:36:01;100970.13;;;12.77;100.00
76022;BME280;64718;52.124;6.226;2023-05-10T07:38:27;100970.22;;;12.76;100.00
76022;BME280;64718;52.124;6.226;2023-05-10T07:40:54;100983.88;;;12.81;100.00
76022;BME280;64718;52.124;6.226;2023-05-10T07:43:20;100975.97;;;12.82;100.00
76022;BME280;64718;52.124;6.226;2023-05-10T07:45:48;100983.88;;;12.81;100.00
76022;BME280;64718;52.124;6.226;2023-05-10T07:48:14;100989.56;;;12.89;100.00
76022;BME280;64718;52.124;6.226;2023-05-10T07:50:41;100986.09;;;12.88;100.00
76022;BME280;64718;52.124;6.226;2023-05-10T07:53:07;100985.41;;;12.85;100.00
76022;BME280;64718;52.124;6.226;2023-05-10T07:55:34;100990.78;;;12.82;100.00
76022;BME280;64718;52.124;6.226;2023-05-10T07:58:00;100990.72;;;12.83;100.00
76022;BME280;64718;52.124;6.226;2023-05-10T08:00:27;100994.47;;;12.95;100.00
76022;BME280;64718;52.124;6.226;2023-05-10T08:02:55;100993.47;;;13.15;100.00
76022;BME280;64718;52.124;6.226;2023-05-10T08:05:21;100991.50;;;13.37;100.00
76022;BME280;64718;52.124;6.226;2023-05-10T08:07:48;100991.94;;;13.45;100.00
76022;BME280;64718;52.124;6.226;2023-05-10T08:10:14;100993.53;;;13.48;100.00
76022;BME280;64718;52.124;6.226;2023-05-10T08:12:42;101000.47;;;13.49;100.00
76022;BME280;64718;52.124;6.226;2023-05-10T08:15:09;100997.56;;;13.38;100.00
76022;BME280;64718;52.124;6.226;2023-05-10T08:17:36;101003.09;;;13.32;100.00
76022;BME280;64718;52.124;6.226;2023-05-10T08:20:04;101000.47;;;13.49;100.00
76022;BME280;64718;52.124;6.226;2023-05-10T08:22:32;101000.25;;;13.69;100.00
76022;BME280;64718;52.124;6.226;2023-05-10T08:24:59;100999.31;;;13.87;100.00
76022;BME280;64718;52.124;6.226;2023-05-10T08:27:25;101003.28;;;14.10;100.00
76022;BME280;64718;52.124;6.226;2023-05-10T08:29:52;101003.44;;;13.91;100.00
76022;BME280;64718;52.124;6.226;2023-05-10T08:32:18;101008.63;;;13.76;100.00
76022;BME280;64718;52.124;6.226;2023-05-10T08:34:45;101007.50;;;13.64;100.00
76022;BME280;64718;52.124;6.226;2023-05-10T08:37:12;101006.53;;;13.49;100.00
76022;BME280;64718;52.124;6.226;2023-05-10T08:39:39;101016.09;;;13.33;100.00
76022;BME280;64718;52.124;6.226;2023-05-10T08:42:06;101020.59;;;13.47;100.00
76022;BME280;64718;52.124;6.226;2023-05-10T08:44:34;101011.38;;;14.06;100.00
76022;BME280;64718;52.124;6.226;2023-05-10T08:47:05;101020.84;;;14.24;100.00
76022;BME280;64718;52.124;6.226;2023-05-10T08:49:32;101023.94;;;14.31;100.00
76022;BME280;64718;52.124;6.226;2023-05-10T08:52:02;101021.88;;;14.53;100.00
76022;BME280;64718;52.124;6.226;2023-05-10T08:54:31;101028.63;;;14.73;100.00
76022;BME280;64718;52.124;6.226;2023-05-10T08:56:58;101035.16;;;14.50;100.00
76022;BME280;64718;52.124;6.226;2023-05-10T08:59:24;101037.59;;;14.53;100.00
76022;BME280;64718;52.124;6.226;2023-05-10T09:01:52;101043.00;;;14.50;100.00
76022;BME280;64718;52.124;6.226;2023-05-10T09:04:19;101036.44;;;14.41;100.00
76022;BME280;64718;52.124;6.226;2023-05-10T09:06:46;101048.94;;;14.20;100.00
76022;BME280;64718;52.124;6.226;2023-05-10T09:09:13;101048.44;;;14.14;100.00
76022;BME280;64718;52.124;6.226;2023-05-10T09:11:42;101043.53;;;14.23;100.00
76022;BME280;64718;52.124;6.226;2023-05-10T09:14:09;101047.34;;;14.34;100.00
76022;BME280;64718;52.124;6.226;2023-05-10T09:16:37;101055.09;;;14.19;100.00
76022;BME280;64718;52.124;6.226;2023-05-10T09:19:04;101063.78;;;14.20;100.00
76022;BME280;64718;52.124;6.226;2023-05-10T09:21:31;101058.88;;;13.98;100.00
76022;BME280;64718;52.124;6.226;2023-05-10T09:24:02;101065.72;;;13.83;100.00
76022;BME280;64718;52.124;6.226;2023-05-10T09:26:29;101067.75;;;13.78;100.00
76022;BME280;64718;52.124;6.226;2023-05-10T09:28:58;101067.97;;;13.91;100.00
76022;BME280;64718;52.124;6.226;2023-05-10T09:31:43;101070.09;;;14.00;100.00
76022;BME280;64718;52.124;6.226;2023-05-10T09:34:10;101063.13;;;14.16;100.00
76022;BME280;64718;52.124;6.226;2023-05-10T09:36:36;101078.56;;;14.37;100.00
76022;BME280;64718;52.124;6.226;2023-05-10T09:39:03;101085.19;;;14.91;100.00
76022;BME280;64718;52.124;6.226;2023-05-10T09:41:30;101080.44;;;15.13;100.00
76022;BME280;64718;52.124;6.226;2023-05-10T09:43:58;101079.13;;;15.21;100.00
76022;BME280;64718;52.124;6.226;2023-05-10T09:46:24;101090.63;;;15.18;100.00
76022;BME280;64718;52.124;6.226;2023-05-10T09:48:51;101084.03;;;15.27;100.00
76022;BME280;64718;52.124;6.226;2023-05-10T09:51:21;101087.72;;;15.52;100.00
76022;BME280;64718;52.124;6.226;2023-05-10T09:53:47;101092.25;;;15.21;100.00
76022;BME280;64718;52.124;6.226;2023-05-10T09:56:32;101100.22;;;15.03;100.00
76022;BME280;64718;52.124;6.226;2023-05-10T09:59:03;101093.53;;;14.98;100.00
76022;BME280;64718;52.124;6.226;2023-05-10T10:01:30;101092.88;;;14.94;100.00
76022;BME280;64718;52.124;6.226;2023-05-10T10:03:56;101098.09;;;15.40;100.00
76022;BME280;64718;52.124;6.226;2023-05-10T10:06:23;101093.91;;;15.51;100.00
76022;BME280;64718;52.124;6.226;2023-05-10T10:08:50;101091.41;;;15.20;100.00
76022;BME280;64718;52.124;6.226;2023-05-10T10:11:17;101093.06;;;15.51;100.00
76022;BME280;64718;52.124;6.226;2023-05-10T10:13:45;101105.69;;;15.44;100.00
76022;BME280;64718;52.124;6.226;2023-05-10T10:16:13;101103.53;;;15.67;100.00
76022;BME280;64718;52.124;6.226;2023-05-10T10:18:39;101106.16;;;15.51;100.00
76022;BME280;64718;52.124;6.226;2023-05-10T10:21:07;101110.44;;;15.38;100.00
76022;BME280;64718;52.124;6.226;2023-05-10T10:23:34;101112.94;;;15.25;100.00
76022;BME280;64718;52.124;6.226;2023-05-10T10:26:02;101104.75;;;15.15;100.00
76022;BME280;64718;52.124;6.226;2023-05-10T10:28:37;101108.31;;;15.14;100.00
76022;BME280;64718;52.124;6.226;2023-05-10T10:31:18;101109.22;;;15.29;100.00
76022;BME280;64718;52.124;6.226;2023-05-10T10:33:59;101103.44;;;15.38;100.00
76022;BME280;64718;52.124;6.226;2023-05-10T10:36:26;101095.88;;;16.35;100.00
76022;BME280;64718;52.124;6.226;2023-05-10T10:38:57;101099.50;;;17.02;95.73
76022;BME280;64718;52.124;6.226;2023-05-10T10:41:30;101094.38;;;17.65;99.47
76022;BME280;64718;52.124;6.226;2023-05-10T10:44:23;101094.25;;;17.54;95.19
76022;BME280;64718;52.124;6.226;2023-05-10T10:47:02;101100.59;;;17.25;96.54
76022;BME280;64718;52.124;6.226;2023-05-10T10:49:31;101104.72;;;17.29;100.00
76022;BME280;64718;52.124;6.226;2023-05-10T10:52:13;101105.19;;;17.35;100.00
76022;BME280;64718;52.124;6.226;2023-05-10T10:54:40;101104.59;;;16.91;100.00
76022;BME280;64718;52.124;6.226;2023-05-10T10:57:10;101104.91;;;17.26;99.92
76022;BME280;64718;52.124;6.226;2023-05-10T10:59:41;101100.28;;;17.17;97.80
76022;BME280;64718;52.124;6.226;2023-05-10T11:02:10;101102.50;;;17.88;97.76
76022;BME280;64718;52.124;6.226;2023-05-10T11:04:56;101104.78;;;17.15;95.98
76022;BME280;64718;52.124;6.226;2023-05-10T11:07:23;101105.84;;;17.64;98.28
76022;BME280;64718;52.124;6.226;2023-05-10T11:09:50;101113.72;;;16.85;92.41
76022;BME280;64718;52.124;6.226;2023-05-10T11:12:16;101106.44;;;17.43;98.75
76022;BME280;64718;52.124;6.226;2023-05-10T11:14:43;101124.44;;;16.82;93.51
76022;BME280;64718;52.124;6.226;2023-05-10T11:17:26;101121.63;;;16.85;97.97
76022;BME280;64718;52.124;6.226;2023-05-10T11:20:06;101125.22;;;16.41;97.44
76022;BME280;64718;52.124;6.226;2023-05-10T11:22:49;101127.94;;;16.11;99.25
76022;BME280;64718;52.124;6.226;2023-05-10T11:25:16;101132.06;;;16.30;100.00
76022;BME280;64718;52.124;6.226;2023-05-10T11:27:43;101140.28;;;15.95;98.27
76022;BME280;64718;52.124;6.226;2023-05-10T11:30:11;101143.72;;;15.51;100.00
76022;BME280;64718;52.124;6.226;2023-05-10T11:32:40;101139.19;;;15.39;100.00
76022;BME280;64718;52.124;6.226;2023-05-10T11:35:21;101140.16;;;15.52;100.00
76022;BME280;64718;52.124;6.226;2023-05-10T11:37:48;101143.84;;;15.34;100.00
76022;BME280;64718;52.124;6.226;2023-05-10T11:40:14;101141.06;;;15.37;100.00
76022;BME280;64718;52.124;6.226;2023-05-10T11:42:41;101143.81;;;15.50;100.00
76022;BME280;64718;52.124;6.226;2023-05-10T11:45:08;101147.63;;;15.44;100.00
76022;BME280;64718;52.124;6.226;2023-05-10T11:47:35;101138.22;;;15.72;97.77
76022;BME280;64718;52.124;6.226;2023-05-10T11:50:04;101139.97;;;15.56;97.34
76022;BME280;64718;52.124;6.226;2023-05-10T11:52:35;101145.03;;;16.19;100.00
76022;BME280;64718;52.124;6.226;2023-05-10T11:55:02;101140.94;;;16.56;95.31
76022;BME280;64718;52.124;6.226;2023-05-10T11:57:29;101134.94;;;16.68;95.80
76022;BME280;64718;52.124;6.226;2023-05-10T11:59:57;101134.56;;;17.55;95.68
76022;BME280;64718;52.124;6.226;2023-05-10T12:02:24;101135.13;;;17.73;90.08
76022;BME280;64718;52.124;6.226;2023-05-10T12:04:50;101136.41;;;17.80;90.49
76022;BME280;64718;52.124;6.226;2023-05-10T12:07:19;101133.25;;;17.87;89.64
76022;BME280;64718;52.124;6.226;2023-05-10T12:10:07;101142.13;;;17.99;88.60
76022;BME280;64718;52.124;6.226;2023-05-10T12:12:38;101138.88;;;17.29;84.00
76022;BME280;64718;52.124;6.226;2023-05-10T12:15:06;101147.81;;;17.26;86.90
76022;BME280;64718;52.124;6.226;2023-05-10T12:17:37;101150.25;;;17.29;85.97
76022;BME280;64718;52.124;6.226;2023-05-10T12:20:14;101143.44;;;17.66;84.93
76022;BME280;64718;52.124;6.226;2023-05-10T12:22:44;101147.66;;;18.45;83.21
76022;BME280;64718;52.124;6.226;2023-05-10T12:25:10;101145.75;;;18.73;77.29
76022;BME280;64718;52.124;6.226;2023-05-10T12:27:37;101139.63;;;18.72;76.56
76022;BME280;64718;52.124;6.226;2023-05-10T12:30:04;101150.44;;;18.06;78.01
76022;BME280;64718;52.124;6.226;2023-05-10T12:32:37;101145.41;;;18.77;77.22
76022;BME280;64718;52.124;6.226;2023-05-10T12:35:05;101153.78;;;19.43;74.39
76022;BME280;64718;52.124;6.226;2023-05-10T12:37:32;101152.72;;;19.69;76.33
76022;BME280;64718;52.124;6.226;2023-05-10T12:40:02;101146.88;;;19.53;72.55
76022;BME280;64718;52.124;6.226;2023-05-10T12:42:30;101148.66;;;19.76;72.55
76022;BME280;64718;52.124;6.226;2023-05-10T12:44:57;101152.38;;;19.85;70.80
76022;BME280;64718;52.124;6.226;2023-05-10T12:47:23;101151.97;;;19.43;71.04